sensor_id;sensor_type;location;lat;lon;timestamp;pressure;altitude;pressure_sealevel;temperature;humidity
13800;BME280;6971;50.028;9.258;2023-11-19T00:04:59;99216.38;;;5.59;100.00
13800;BME280;6971;50.028;9.258;2023-11-19T00:10:00;99202.78;;;5.49;100.00
13800;BME280;6971;50.028;9.258;2023-11-19T00:15:10;99214.00;;;5.53;100.00
13800;BME280;6971;50.028;9.258;2023-11-19T00:20:15;99214.72;;;5.56;100.00
13800;BME280;6971;50.028;9.258;2023-11-19T00:25:17;99198.31;;;5.53;100.00
13800;BME280;6971;50.028;9.258;2023-11-19T00:30:17;99192.84;;;5.59;100.00
13800;BME280;6971;50.028;9.258;2023-11-19T00:35:18;99190.06;;;5.64;100.00
13800;BME280;6971;50.028;9.258;2023-11-19T00:40:18;99202.78;;;5.73;100.00
13800;BME280;6971;50.028;9.258;2023-11-19T00:45:21;99197.78;;;5.67;100.00
13800;BME280;6971;50.028;9.258;2023-11-19T00:50:22;99198.34;;;5.75;100.00
13800;BME280;6971;50.028;9.258;2023-11-19T00:55:22;99179.81;;;5.81;100.00
13800;BME280;6971;50.028;9.258;2023-11-19T01:00:24;99180.72;;;5.80;100.00
13800;BME280;6971;50.028;9.258;2023-11-19T01:05:27;99181.16;;;5.68;100.00
13800;BME280;6971;50.028;9.258;2023-11-19T01:10:28;99177.81;;;5.88;100.00
13800;BME280;6971;50.028;9.258;2023-11-19T01:15:28;99167.78;;;5.77;100.00
13800;BME280;6971;50.028;9.258;2023-11-19T01:20:29;99171.22;;;5.78;100.00
13800;BME280;6971;50.028;9.258;2023-11-19T01:25:29;99166.84;;;5.78;100.00
13800;BME280;6971;50.028;9.258;2023-11-19T01:30:30;99171.63;;;5.91;100.00
13800;BME280;6971;50.028;9.258;2023-11-19T01:35:30;99174.34;;;5.87;100.00
13800;BME280;6971;50.028;9.258;2023-11-19T01:40:31;99172.44;;;5.91;100.00
13800;BME280;6971;50.028;9.258;2023-11-19T01:45:31;99155.44;;;6.03;100.00
13800;BME280;6971;50.028;9.258;2023-11-19T01:50:33;99143.19;;;6.05;100.00
13800;BME280;6971;50.028;9.258;2023-11-19T01:55:34;99146.72;;;6.04;100.00
13800;BME280;6971;50.028;9.258;2023-11-19T02:00:34;99122.25;;;6.05;100.00
13800;BME280;6971;50.028;9.258;2023-11-19T02:05:35;99089.59;;;6.14;100.00
13800;BME280;6971;50.028;9.258;2023-11-19T02:10:35;99094.59;;;6.20;100.00
13800;BME280;6971;50.028;9.258;2023-11-19T02:15:36;99120.41;;;6.07;100.00
13800;BME280;6971;50.028;9.258;2023-11-19T02:20:36;99120.84;;;6.19;100.00
13800;BME280;6971;50.028;9.258;2023-11-19T02:25:37;99116.84;;;6.31;100.00
13800;BME280;6971;50.028;9.258;2023-11-19T02:30:38;99093.72;;;6.42;100.00
13800;BME280;6971;50.028;9.258;2023-11-19T02:35:38;99086.31;;;6.31;100.00
13800;BME280;6971;50.028;9.258;2023-11-19T02:40:40;99079.09;;;6.36;100.00
13800;BME280;6971;50.028;9.258;2023-11-19T02:45:41;99062.09;;;6.26;100.00
13800;BME280;6971;50.028;9.258;2023-11-19T02:50:42;99055.44;;;6.39;100.00
13800;BME280;6971;50.028;9.258;2023-11-19T02:55:42;99047.69;;;6.36;100.00
13800;BME280;6971;50.028;9.258;2023-11-19T03:00:48;99061.81;;;6.32;100.00
13800;BME280;6971;50.028;9.258;2023-11-19T03:05:54;99049.38;;;6.37;100.00
13800;BME280;6971;50.028;9.258;2023-11-19T03:10:55;99036.25;;;6.39;100.00
13800;BME280;6971;50.028;9.258;2023-11-19T03:15:55;99049.00;;;6.26;100.00
13800;BME280;6971;50.028;9.258;2023-11-19T03:20:56;99043.22;;;6.38;100.00
13800;BME280;6971;50.028;9.258;2023-11-19T03:25:57;99031.59;;;6.46;100.00
13800;BME280;6971;50.028;9.258;2023-11-19T03:30:58;99031.47;;;6.49;100.00
13800;BME280;6971;50.028;9.258;2023-11-19T03:35:58;99025.31;;;6.50;100.00
13800;BME280;6971;50.028;9.258;2023-11-19T03:40:59;99026.59;;;6.60;100.00
13800;BME280;6971;50.028;9.258;2023-11-19T03:45:59;99023.63;;;6.49;100.00
13800;BME280;6971;50.028;9.258;2023-11-19T03:50:59;99012.91;;;6.53;100.00
13800;BME280;6971;50.028;9.258;2023-11-19T03:56:00;99011.81;;;6.59;100.00
13800;BME280;6971;50.028;9.258;2023-11-19T04:01:00;99020.31;;;6.64;100.00
13800;BME280;6971;50.028;9.258;2023-11-19T04:06:00;99015.22;;;6.61;100.00
13800;BME280;6971;50.028;9.258;2023-11-19T04:11:03;99016.41;;;6.54;100.00
13800;BME280;6971;50.028;9.258;2023-11-19T04:16:04;99016.78;;;6.65;100.00
13800;BME280;6971;50.028;9.258;2023-11-19T04:21:07;99019.13;;;6.72;100.00
13800;BME280;6971;50.028;9.258;2023-11-19T04:26:08;99024.22;;;6.75;100.00
13800;BME280;6971;50.028;9.258;2023-11-19T04:31:08;99021.88;;;6.69;100.00
13800;BME280;6971;50.028;9.258;2023-11-19T04:36:10;99009.00;;;6.83;100.00
13800;BME280;6971;50.028;9.258;2023-11-19T04:41:10;98989.91;;;6.81;100.00
13800;BME280;6971;50.028;9.258;2023-11-19T04:46:11;98993.56;;;6.77;100.00
13800;BME280;6971;50.028;9.258;2023-11-19T04:51:11;98999.50;;;6.81;100.00
13800;BME280;6971;50.028;9.258;2023-11-19T04:56:11;98999.69;;;6.97;100.00
13800;BME280;6971;50.028;9.258;2023-11-19T05:01:14;98998.13;;;6.92;100.00
13800;BME280;6971;50.028;9.258;2023-11-19T05:06:17;98994.56;;;6.94;100.00
13800;BME280;6971;50.028;9.258;2023-11-19T05:11:18;98997.63;;;6.84;100.00
13800;BME280;6971;50.028;9.258;2023-11-19T05:16:20;98999.81;;;6.94;100.00
13800;BME280;6971;50.028;9.258;2023-11-19T05:21:21;98991.09;;;6.93;100.00
13800;BME280;6971;50.028;9.258;2023-11-19T05:26:23;98994.44;;;6.97;100.00
13800;BME280;6971;50.028;9.258;2023-11-19T05:31:23;98994.84;;;7.07;100.00
13800;BME280;6971;50.028;9.258;2023-11-19T05:36:23;99000.44;;;6.99;100.00
13800;BME280;6971;50.028;9.258;2023-11-19T05:41:24;99005.97;;;7.12;100.00
13800;BME280;6971;50.028;9.258;2023-11-19T05:46:24;99008.94;;;7.23;100.00
13800;BME280;6971;50.028;9.258;2023-11-19T05:51:27;98997.94;;;7.34;100.00
13800;BME280;6971;50.028;9.258;2023-11-19T05:56:27;98985.94;;;7.48;100.00
13800;BME280;6971;50.028;9.258;2023-11-19T06:01:35;98977.03;;;7.69;100.00
13800;BME280;6971;50.028;9.258;2023-11-19T06:06:37;98995.31;;;7.53;100.00
13800;BME280;6971;50.028;9.258;2023-11-19T06:11:37;98998.34;;;7.63;100.00
13800;BME280;6971;50.028;9.258;2023-11-19T06:16:37;98991.91;;;7.69;100.00
13800;BME280;6971;50.028;9.258;2023-11-19T06:21:40;98995.53;;;7.66;100.00
13800;BME280;6971;50.028;9.258;2023-11-19T06:26:40;98997.41;;;7.64;100.00
13800;BME280;6971;50.028;9.258;2023-11-19T06:31:40;99003.13;;;7.73;100.00
13800;BME280;6971;50.028;9.258;2023-11-19T06:36:41;98998.03;;;7.69;100.00
13800;BME280;6971;50.028;9.258;2023-11-19T06:41:46;98997.72;;;7.76;100.00
13800;BME280;6971;50.028;9.258;2023-11-19T06:46:48;98998.16;;;7.66;100.00
13800;BME280;6971;50.028;9.258;2023-11-19T06:51:48;98996.81;;;7.77;100.00
13800;BME280;6971;50.028;9.258;2023-11-19T06:56:49;99005.56;;;7.76;100.00
13800;BME280;6971;50.028;9.258;2023-11-19T07:01:49;99014.09;;;7.99;100.00
13800;BME280;6971;50.028;9.258;2023-11-19T07:06:49;99016.03;;;8.13;100.00
13800;BME280;6971;50.028;9.258;2023-11-19T07:11:50;99020.50;;;8.46;100.00
13800;BME280;6971;50.028;9.258;2023-11-19T07:16:53;99025.66;;;8.65;100.00
13800;BME280;6971;50.028;9.258;2023-11-19T07:21:55;99037.06;;;8.64;100.00
13800;BME280;6971;50.028;9.258;2023-11-19T07:26:56;99037.38;;;8.75;100.00
13800;BME280;6971;50.028;9.258;2023-11-19T07:31:57;99047.84;;;8.93;100.00
13800;BME280;6971;50.028;9.258;2023-11-19T07:36:57;99048.28;;;9.01;100.00
13800;BME280;6971;50.028;9.258;2023-11-19T07:41:59;99039.19;;;9.07;100.00
13800;BME280;6971;50.028;9.258;2023-11-19T07:47:00;99042.44;;;9.12;100.00
13800;BME280;6971;50.028;9.258;2023-11-19T07:52:00;99045.75;;;9.16;100.00
13800;BME280;6971;50.028;9.258;2023-11-19T07:57:01;99049.25;;;9.33;100.00
13800;BME280;6971;50.028;9.258;2023-11-19T08:02:01;99050.44;;;9.27;100.00
13800;BME280;6971;50.028;9.258;2023-11-19T08:07:02;99046.09;;;9.26;100.00
13800;BME280;6971;50.028;9.258;2023-11-19T08:12:03;99039.81;;;9.29;100.00
13800;BME280;6971;50.028;9.258;2023-11-19T08:17:03;99033.47;;;9.33;100.00
13800;BME280;6971;50.028;9.258;2023-11-19T08:22:04;99045.16;;;9.43;100.00
13800;BME280;6971;50.028;9.258;2023-11-19T08:27:04;99048.72;;;9.42;100.00
13800;BME280;6971;50.028;9.258;2023-11-19T08:32:05;99049.59;;;9.59;100.00
13800;BME280;6971;50.028;9.258;2023-11-19T08:37:06;99054.06;;;9.73;100.00
13800;BME280;6971;50.028;9.258;2023-11-19T08:42:06;99050.41;;;9.59;100.00
13800;BME280;6971;50.028;9.258;2023-11-19T08:47:07;99054.03;;;9.89;100.00
13800;BME280;6971;50.028;9.258;2023-11-19T08:52:07;99033.91;;;9.88;100.00
13800;BME280;6971;50.028;9.258;2023-11-19T08:57:09;99038.75;;;9.79;100.00
13800;BME280;6971;50.028;9.258;2023-11-19T09:02:09;99040.56;;;9.79;100.00
13800;BME280;6971;50.028;9.258;2023-11-19T09:07:10;99047.66;;;9.93;100.00
13800;BME280;6971;50.028;9.258;2023-11-19T09:12:10;99059.03;;;9.93;100.00
13800;BME280;6971;50.028;9.258;2023-11-19T09:17:11;99056.91;;;10.00;100.00
13800;BME280;6971;50.028;9.258;2023-11-19T09:22:11;99066.31;;;10.04;100.00
13800;BME280;6971;50.028;9.258;2023-11-19T09:27:12;99068.59;;;10.11;100.00
13800;BME280;6971;50.028;9.258;2023-11-19T09:32:12;99070.63;;;10.52;100.00
13800;BME280;6971;50.028;9.258;2023-11-19T09:37:12;99058.31;;;11.26;100.00
13800;BME280;6971;50.028;9.258;2023-11-19T09:42:13;99049.63;;;12.21;100.00
13800;BME280;6971;50.028;9.258;2023-11-19T09:47:14;99056.59;;;13.00;100.00
13800;BME280;6971;50.028;9.258;2023-11-19T09:52:14;99043.59;;;12.58;100.00
13800;BME280;6971;50.028;9.258;2023-11-19T09:57:16;99053.38;;;15.36;100.00
13800;BME280;6971;50.028;9.258;2023-11-19T10:02:18;99055.28;;;13.31;100.00
13800;BME280;6971;50.028;9.258;2023-11-19T10:07:18;99057.03;;;12.93;100.00
13800;BME280;6971;50.028;9.258;2023-11-19T10:12:19;99069.09;;;12.46;100.00
13800;BME280;6971;50.028;9.258;2023-11-19T10:17:19;99063.84;;;12.05;100.00
13800;BME280;6971;50.028;9.258;2023-11-19T10:22:19;99073.81;;;12.00;100.00
13800;BME280;6971;50.028;9.258;2023-11-19T10:27:20;99064.47;;;11.81;100.00
13800;BME280;6971;50.028;9.258;2023-11-19T10:32:20;99067.13;;;11.67;100.00
13800;BME280;6971;50.028;9.258;2023-11-19T10:37:30;99067.59;;;12.42;100.00
13800;BME280;6971;50.028;9.258;2023-11-19T10:42:32;99077.72;;;13.52;100.00
13800;BME280;6971;50.028;9.258;2023-11-19T10:47:33;99085.16;;;13.95;100.00
13800;BME280;6971;50.028;9.258;2023-11-19T10:52:35;99084.97;;;13.99;100.00
13800;BME280;6971;50.028;9.258;2023-11-19T10:57:36;99085.28;;;16.24;100.00
13800;BME280;6971;50.028;9.258;2023-11-19T11:02:41;99078.16;;;16.46;100.00
13800;BME280;6971;50.028;9.258;2023-11-19T11:07:44;99071.84;;;16.68;100.00
13800;BME280;6971;50.028;9.258;2023-11-19T11:12:45;99054.47;;;14.29;100.00
13800;BME280;6971;50.028;9.258;2023-11-19T11:17:47;99058.59;;;14.44;100.00
13800;BME280;6971;50.028;9.258;2023-11-19T11:28:38;99045.44;;;12.83;100.00
13800;BME280;6971;50.028;9.258;2023-11-19T11:33:55;99055.13;;;15.70;100.00
13800;BME280;6971;50.028;9.258;2023-11-19T11:38:59;99055.13;;;15.58;100.00
13800;BME280;6971;50.028;9.258;2023-11-19T11:44:01;99036.00;;;13.42;100.00
13800;BME280;6971;50.028;9.258;2023-11-19T11:49:03;99035.06;;;12.80;100.00
13800;BME280;6971;50.028;9.258;2023-11-19T11:54:04;99021.63;;;12.57;100.00
13800;BME280;6971;50.028;9.258;2023-11-19T11:59:08;99016.22;;;12.33;100.00
13800;BME280;6971;50.028;9.258;2023-11-19T12:04:18;99012.94;;;12.16;100.00
13800;BME280;6971;50.028;9.258;2023-11-19T12:09:19;99008.38;;;12.05;100.00
13800;BME280;6971;50.028;9.258;2023-11-19T12:20:05;99018.88;;;11.92;100.00
13800;BME280;6971;50.028;9.258;2023-11-19T12:25:12;99006.94;;;11.86;100.00
13800;BME280;6971;50.028;9.258;2023-11-19T12:30:23;99002.72;;;11.97;100.00
13800;BME280;6971;50.028;9.258;2023-11-19T12:35:26;99004.81;;;11.92;100.00
13800;BME280;6971;50.028;9.258;2023-11-19T12:40:27;98992.09;;;11.71;100.00
13800;BME280;6971;50.028;9.258;2023-11-19T12:45:36;98992.56;;;11.50;100.00
13800;BME280;6971;50.028;9.258;2023-11-19T12:50:53;98989.50;;;11.56;100.00
13800;BME280;6971;50.028;9.258;2023-11-19T12:55:54;98969.97;;;11.46;100.00
13800;BME280;6971;50.028;9.258;2023-11-19T13:01:02;98976.31;;;11.56;100.00
13800;BME280;6971;50.028;9.258;2023-11-19T13:06:07;98967.41;;;11.72;100.00
13800;BME280;6971;50.028;9.258;2023-11-19T13:11:08;98978.50;;;12.18;100.00
13800;BME280;6971;50.028;9.258;2023-11-19T13:16:08;98966.66;;;12.23;100.00
13800;BME280;6971;50.028;9.258;2023-11-19T13:21:09;98968.22;;;12.78;100.00
13800;BME280;6971;50.028;9.258;2023-11-19T13:26:10;98965.91;;;13.48;100.00
13800;BME280;6971;50.028;9.258;2023-11-19T13:31:11;98968.31;;;13.27;100.00
13800;BME280;6971;50.028;9.258;2023-11-19T13:36:11;98975.94;;;12.81;100.00
13800;BME280;6971;50.028;9.258;2023-11-19T13:41:12;98971.50;;;12.82;100.00
13800;BME280;6971;50.028;9.258;2023-11-19T13:46:13;98973.31;;;12.55;100.00
13800;BME280;6971;50.028;9.258;2023-11-19T13:51:14;98966.13;;;12.31;100.00
13800;BME280;6971;50.028;9.258;2023-11-19T13:56:14;98961.16;;;12.26;100.00
13800;BME280;6971;50.028;9.258;2023-11-19T14:01:14;98977.53;;;12.19;100.00
13800;BME280;6971;50.028;9.258;2023-11-19T14:06:15;98965.16;;;12.06;100.00
13800;BME280;6971;50.028;9.258;2023-11-19T14:11:15;98970.53;;;12.05;100.00
13800;BME280;6971;50.028;9.258;2023-11-19T14:16:16;98971.53;;;12.17;100.00
13800;BME280;6971;50.028;9.258;2023-11-19T14:21:16;98981.75;;;12.08;100.00
13800;BME280;6971;50.028;9.258;2023-11-19T14:26:16;98987.88;;;12.09;100.00
13800;BME280;6971;50.028;9.258;2023-11-19T14:31:16;98977.06;;;11.99;100.00
13800;BME280;6971;50.028;9.258;2023-11-19T14:36:17;98970.44;;;12.06;100.00
13800;BME280;6971;50.028;9.258;2023-11-19T14:41:18;98973.06;;;12.06;100.00
13800;BME280;6971;50.028;9.258;2023-11-19T14:46:18;98955.94;;;11.99;100.00
13800;BME280;6971;50.028;9.258;2023-11-19T14:51:18;98954.84;;;11.88;100.00
13800;BME280;6971;50.028;9.258;2023-11-19T14:56:19;98953.34;;;11.71;100.00
13800;BME280;6971;50.028;9.258;2023-11-19T15:01:19;98947.53;;;11.66;100.00
13800;BME280;6971;50.028;9.258;2023-11-19T15:06:23;98961.13;;;11.60;100.00
13800;BME280;6971;50.028;9.258;2023-11-19T15:11:24;98942.72;;;11.45;100.00
13800;BME280;6971;50.028;9.258;2023-11-19T15:16:24;98958.50;;;11.32;100.00
13800;BME280;6971;50.028;9.258;2023-11-19T15:21:31;98955.53;;;11.24;100.00
13800;BME280;6971;50.028;9.258;2023-11-19T15:26:36;98960.47;;;11.01;100.00
13800;BME280;6971;50.028;9.258;2023-11-19T15:31:36;98968.13;;;10.91;100.00
13800;BME280;6971;50.028;9.258;2023-11-19T15:36:37;98967.28;;;10.76;100.00
13800;BME280;6971;50.028;9.258;2023-11-19T15:41:37;98970.09;;;10.88;100.00
13800;BME280;6971;50.028;9.258;2023-11-19T15:46:40;98973.13;;;10.67;100.00
13800;BME280;6971;50.028;9.258;2023-11-19T15:51:42;98961.00;;;10.64;100.00
13800;BME280;6971;50.028;9.258;2023-11-19T15:56:42;98967.94;;;10.65;100.00
13800;BME280;6971;50.028;9.258;2023-11-19T16:01:42;98979.44;;;10.64;100.00
13800;BME280;6971;50.028;9.258;2023-11-19T16:06:43;98985.75;;;10.62;100.00
13800;BME280;6971;50.028;9.258;2023-11-19T16:11:43;98990.25;;;10.45;100.00
13800;BME280;6971;50.028;9.258;2023-11-19T16:16:43;98993.03;;;10.42;100.00
13800;BME280;6971;50.028;9.258;2023-11-19T16:21:44;98993.59;;;10.32;100.00
13800;BME280;6971;50.028;9.258;2023-11-19T16:26:45;99008.16;;;10.24;100.00
13800;BME280;6971;50.028;9.258;2023-11-19T16:31:45;99001.69;;;9.99;100.00
13800;BME280;6971;50.028;9.258;2023-11-19T16:36:46;99001.63;;;10.00;100.00
13800;BME280;6971;50.028;9.258;2023-11-19T16:41:46;99005.50;;;9.78;100.00
13800;BME280;6971;50.028;9.258;2023-11-19T16:46:47;99009.00;;;9.63;100.00
13800;BME280;6971;50.028;9.258;2023-11-19T16:51:47;99009.84;;;9.63;100.00
13800;BME280;6971;50.028;9.258;2023-11-19T16:56:48;99023.28;;;9.59;100.00
13800;BME280;6971;50.028;9.258;2023-11-19T17:01:48;99020.38;;;9.47;100.00
13800;BME280;6971;50.028;9.258;2023-11-19T17:06:48;99021.34;;;9.46;100.00
13800;BME280;6971;50.028;9.258;2023-11-19T17:11:49;99021.47;;;9.59;100.00
13800;BME280;6971;50.028;9.258;2023-11-19T17:16:49;99025.16;;;9.40;100.00
13800;BME280;6971;50.028;9.258;2023-11-19T17:21:49;99024.22;;;9.25;100.00
13800;BME280;6971;50.028;9.258;2023-11-19T17:26:50;99022.28;;;8.79;100.00
13800;BME280;6971;50.028;9.258;2023-11-19T17:31:50;99018.00;;;8.60;100.00
13800;BME280;6971;50.028;9.258;2023-11-19T17:36:51;99023.34;;;8.23;100.00
13800;BME280;6971;50.028;9.258;2023-11-19T17:41:51;99020.19;;;8.17;100.00
13800;BME280;6971;50.028;9.258;2023-11-19T17:46:51;99019.91;;;8.23;100.00
13800;BME280;6971;50.028;9.258;2023-11-19T17:51:52;99021.25;;;8.30;100.00
13800;BME280;6971;50.028;9.258;2023-11-19T17:56:52;99025.00;;;8.78;100.00
13800;BME280;6971;50.028;9.258;2023-11-19T18:01:52;99028.09;;;9.02;100.00
13800;BME280;6971;50.028;9.258;2023-11-19T18:06:59;99034.72;;;9.25;100.00
13800;BME280;6971;50.028;9.258;2023-11-19T18:12:00;99048.56;;;9.61;100.00
13800;BME280;6971;50.028;9.258;2023-11-19T18:17:02;99049.75;;;9.56;100.00
13800;BME280;6971;50.028;9.258;2023-11-19T18:22:02;99044.03;;;9.63;100.00
13800;BME280;6971;50.028;9.258;2023-11-19T18:27:05;99054.25;;;9.70;100.00
13800;BME280;6971;50.028;9.258;2023-11-19T18:32:05;99066.03;;;9.78;100.00
13800;BME280;6971;50.028;9.258;2023-11-19T18:37:09;99056.44;;;9.77;100.00
13800;BME280;6971;50.028;9.258;2023-11-19T18:42:10;99058.25;;;9.91;100.00
13800;BME280;6971;50.028;9.258;2023-11-19T18:47:10;99061.91;;;9.89;100.00
13800;BME280;6971;50.028;9.258;2023-11-19T18:52:10;99055.25;;;9.67;100.00
13800;BME280;6971;50.028;9.258;2023-11-19T18:57:11;99058.16;;;9.62;100.00
13800;BME280;6971;50.028;9.258;2023-11-19T19:02:11;99054.44;;;9.34;100.00
13800;BME280;6971;50.028;9.258;2023-11-19T19:07:12;99052.13;;;9.28;100.00
13800;BME280;6971;50.028;9.258;2023-11-19T19:12:12;99053.19;;;9.08;100.00
13800;BME280;6971;50.028;9.258;2023-11-19T19:17:13;99052.25;;;9.09;100.00
13800;BME280;6971;50.028;9.258;2023-11-19T19:22:14;99047.56;;;8.98;100.00
13800;BME280;6971;50.028;9.258;2023-11-19T19:27:14;99039.00;;;8.78;100.00
13800;BME280;6971;50.028;9.258;2023-11-19T19:32:15;99044.81;;;8.67;100.00
13800;BME280;6971;50.028;9.258;2023-11-19T19:37:15;99052.06;;;8.80;100.00
13800;BME280;6971;50.028;9.258;2023-11-19T19:42:15;99050.06;;;8.67;100.00
13800;BME280;6971;50.028;9.258;2023-11-19T19:47:16;99051.47;;;8.57;100.00
13800;BME280;6971;50.028;9.258;2023-11-19T19:52:17;99048.44;;;8.65;100.00
13800;BME280;6971;50.028;9.258;2023-11-19T19:57:18;99053.00;;;8.79;100.00
13800;BME280;6971;50.028;9.258;2023-11-19T20:02:18;99056.13;;;8.85;100.00
13800;BME280;6971;50.028;9.258;2023-11-19T20:07:18;99054.13;;;8.91;100.00
13800;BME280;6971;50.028;9.258;2023-11-19T20:12:19;99047.44;;;9.01;100.00
13800;BME280;6971;50.028;9.258;2023-11-19T20:17:19;99064.31;;;9.13;100.00
13800;BME280;6971;50.028;9.258;2023-11-19T20:22:19;99059.34;;;9.24;100.00
13800;BME280;6971;50.028;9.258;2023-11-19T20:27:20;99062.81;;;9.41;100.00
13800;BME280;6971;50.028;9.258;2023-11-19T20:32:20;99061.03;;;9.42;100.00
13800;BME280;6971;50.028;9.258;2023-11-19T20:37:21;99059.59;;;9.52;100.00
13800;BME280;6971;50.028;9.258;2023-11-19T20:42:21;99067.50;;;9.52;100.00
13800;BME280;6971;50.028;9.258;2023-11-19T20:47:21;99069.19;;;9.69;100.00
13800;BME280;6971;50.028;9.258;2023-11-19T20:52:22;99066.69;;;9.66;100.00
13800;BME280;6971;50.028;9.258;2023-11-19T20:57:22;99065.28;;;9.76;100.00
13800;BME280;6971;50.028;9.258;2023-11-19T21:02:23;99067.28;;;9.71;100.00
13800;BME280;6971;50.028;9.258;2023-11-19T21:07:23;99066.69;;;9.66;100.00
13800;BME280;6971;50.028;9.258;2023-11-19T21:12:24;99065.59;;;9.70;100.00
13800;BME280;6971;50.028;9.258;2023-11-19T21:17:24;99068.41;;;9.83;100.00
13800;BME280;6971;50.028;9.258;2023-11-19T21:22:25;99067.88;;;9.92;100.00
13800;BME280;6971;50.028;9.258;2023-11-19T21:27:25;99074.84;;;9.93;100.00
13800;BME280;6971;50.028;9.258;2023-11-19T21:32:28;99068.88;;;10.06;100.00
13800;BME280;6971;50.028;9.258;2023-11-19T21:37:28;99062.66;;;10.07;100.00
13800;BME280;6971;50.028;9.258;2023-11-19T21:42:28;99072.16;;;10.10;100.00
13800;BME280;6971;50.028;9.258;2023-11-19T21:47:30;99066.72;;;10.13;100.00
13800;BME280;6971;50.028;9.258;2023-11-19T21:52:30;99073.84;;;10.11;100.00
13800;BME280;6971;50.028;9.258;2023-11-19T21:57:30;99076.41;;;10.12;100.00
13800;BME280;6971;50.028;9.258;2023-11-19T22:02:31;99071.28;;;10.25;100.00
13800;BME280;6971;50.028;9.258;2023-11-19T22:07:31;99065.06;;;10.26;100.00
13800;BME280;6971;50.028;9.258;2023-11-19T22:12:32;99072.19;;;10.24;100.00
13800;BME280;6971;50.028;9.258;2023-11-19T22:17:32;99063.88;;;10.32;100.00
13800;BME280;6971;50.028;9.258;2023-11-19T22:22:33;99070.91;;;10.31;100.00
13800;BME280;6971;50.028;9.258;2023-11-19T22:27:33;99074.88;;;10.39;100.00
13800;BME280;6971;50.028;9.258;2023-11-19T22:32:35;99075.81;;;10.38;100.00
13800;BME280;6971;50.028;9.258;2023-11-19T22:37:35;99073.28;;;10.36;100.00
13800;BME280;6971;50.028;9.258;2023-11-19T22:42:35;99066.31;;;10.35;100.00
13800;BME280;6971;50.028;9.258;2023-11-19T22:47:37;99066.22;;;10.37;100.00
13800;BME280;6971;50.028;9.258;2023-11-19T22:52:37;99059.75;;;10.42;100.00
13800;BME280;6971;50.028;9.258;2023-11-19T22:57:38;99054.06;;;10.34;100.00
13800;BME280;6971;50.028;9.258;2023-11-19T23:02:38;99047.38;;;10.28;100.00
13800;BME280;6971;50.028;9.258;2023-11-19T23:07:38;99053.50;;;10.29;100.00
13800;BME280;6971;50.028;9.258;2023-11-19T23:12:39;99053.59;;;10.27;100.00
13800;BME280;6971;50.028;9.258;2023-11-19T23:17:40;99054.16;;;10.32;100.00
13800;BME280;6971;50.028;9.258;2023-11-19T23:22:40;99057.16;;;10.26;100.00
13800;BME280;6971;50.028;9.258;2023-11-19T23:27:41;99060.53;;;10.28;100.00
13800;BME280;6971;50.028;9.258;2023-11-19T23:32:41;99057.91;;;10.28;100.00
13800;BME280;6971;50.028;9.258;2023-11-19T23:37:41;99065.66;;;10.31;100.00
13800;BME280;6971;50.028;9.258;2023-11-19T23:42:43;99054.72;;;10.38;100.00
13800;BME280;6971;50.028;9.258;2023-11-19T23:47:44;99056.25;;;10.42;100.00
13800;BME280;6971;50.028;9.258;2023-11-19T23:52:44;99061.91;;;10.36;100.00
13800;BME280;6971;50.028;9.258;2023-11-19T23:57:47;99052.47;;;10.31;100.00
